Time,TemperatureF,DewpointF,PressureIn,WindDirection,WindDirectionDegrees,WindSpeedMPH,WindSpeedGustMPH,Humidity,HourlyPrecipIn,Conditions,Clouds,dailyrainin,SoftwareType,DateUTC
2013-12-26 00:22:00,73.0,72.0,30.05,South,186,20.0,23.0,96,0.00,,,0.07,,2013-12-26 05:22:00,
2013-12-26 00:53:00,74.0,72.0,30.04,South,190,19.0,26.0,94,0.00,,,0.07,,2013-12-26 05:53:00,
2013-12-26 01:22:00,76.0,73.0,30.04,South,191,22.0,24.0,89,0.00,,,0.07,,2013-12-26 06:22:00,
2013-12-26 01:42:00,76.0,73.0,30.04,South,185,19.0,22.0,89,0.00,,,0.07,,2013-12-26 06:42:00,
2013-12-26 01:52:00,76.0,73.0,30.03,South,186,10.0,18.0,89,0.00,,,0.07,,2013-12-26 06:52:00,
2013-12-26 02:22:00,73.0,71.0,30.04,SSE,147,13.0,18.0,94,0.00,,,0.07,,2013-12-26 07:22:00,
2013-12-26 02:42:00,73.0,71.0,30.04,SE,142,13.0,19.0,94,0.00,,,0.07,,2013-12-26 07:42:00,
2013-12-26 02:53:00,73.0,71.0,30.04,ESE,121,12.0,14.0,94,0.00,,,0.07,,2013-12-26 07:53:00,
2013-12-26 03:22:00,73.0,71.0,30.03,SSE,155,10.0,13.0,94,0.03,,,0.10,,2013-12-26 08:22:00,
2013-12-26 03:53:00,74.0,72.0,30.03,SW,225,12.0,14.0,92,0.03,,,0.10,,2013-12-26 08:53:00,
2013-12-26 04:12:00,75.0,72.0,30.03,SSE,159,10.0,14.0,90,0.03,,,0.10,,2013-12-26 09:12:00,
2013-12-26 04:22:00,73.0,71.0,30.03,SE,129,14.0,20.0,94,0.00,,,0.10,,2013-12-26 09:22:00,
2013-12-26 04:53:00,72.0,70.0,30.03,SE,138,13.0,19.0,95,0.00,,,0.10,,2013-12-26 09:53:00,
2013-12-26 05:22:00,72.0,70.0,30.02,ESE,105,13.0,18.0,95,0.00,,,0.10,,2013-12-26 10:22:00,
2013-12-26 05:42:00,72.0,71.0,30.03,South,180,13.0,18.0,96,0.00,,,0.10,,2013-12-26 10:42:00,
2013-12-26 05:53:00,72.0,70.0,30.03,SE,130,16.0,22.0,95,0.00,,,0.10,,2013-12-26 10:53:00,
2013-12-26 06:22:00,73.0,71.0,30.03,SE,124,13.0,20.0,95,0.00,,,0.10,,2013-12-26 11:22:00,
2013-12-26 06:52:00,73.0,71.0,30.04,SE,129,14.0,19.0,95,0.00,,,0.10,,2013-12-26 11:52:00,
2013-12-26 07:22:00,74.0,72.0,30.05,SE,126,10.0,13.0,92,0.00,,,0.10,,2013-12-26 12:22:00,
2013-12-26 07:53:00,73.0,71.0,30.07,SE,136,12.0,21.0,94,0.00,,,0.08,,2013-12-26 12:53:00,
2013-12-26 08:22:00,73.0,71.0,30.08,ESE,119,14.0,18.0,95,0.00,,,0.08,,2013-12-26 13:22:00,
2013-12-26 08:53:00,73.0,71.0,30.09,SSE,154,11.0,15.0,94,0.00,,,0.08,,2013-12-26 13:53:00,
2013-12-26 09:22:00,75.0,73.0,30.09,SSE,162,9.0,11.0,93,0.00,,,0.08,,2013-12-26 14:22:00,
2013-12-26 09:42:00,75.0,72.0,30.09,South,172,9.0,12.0,91,0.00,,,0.08,,2013-12-26 14:42:00,
2013-12-26 09:52:00,75.0,72.0,30.10,SE,141,12.0,18.0,91,0.00,,,0.08,,2013-12-26 14:52:00,
2013-12-26 10:22:00,74.0,72.0,30.11,SE,137,15.0,19.0,92,0.00,,,0.08,,2013-12-26 15:22:00,
2013-12-26 10:53:00,74.0,72.0,30.11,SE,143,13.0,18.0,92,0.00,,,0.08,,2013-12-26 15:53:00,
2013-12-26 11:23:00,74.0,72.0,30.11,SE,141,16.0,21.0,93,0.00,,,0.08,,2013-12-26 16:23:00,
2013-12-26 11:53:00,74.0,72.0,30.10,SSE,158,17.0,21.0,93,0.00,,,0.08,,2013-12-26 16:53:00,
2013-12-26 12:23:00,73.0,71.0,30.09,SSE,153,16.0,20.0,94,0.00,,,0.08,,2013-12-26 17:23:00,
2013-12-26 12:52:00,75.0,73.0,30.07,SSE,153,14.0,19.0,93,0.00,,,0.08,,2013-12-26 17:52:00,
2013-12-26 13:12:00,75.0,73.0,30.06,South,175,14.0,18.0,92,0.00,,,0.08,,2013-12-26 18:12:00,
2013-12-26 13:22:00,75.0,73.0,30.05,SSE,168,13.0,15.0,92,0.00,,,0.08,,2013-12-26 18:22:00,
2013-12-26 13:52:00,76.0,73.0,30.03,SSE,163,11.0,15.0,91,0.00,,,0.08,,2013-12-26 18:52:00,
2013-12-26 14:22:00,76.0,73.0,30.03,SSE,165,10.0,13.0,91,0.00,,,0.08,,2013-12-26 19:22:00,
2013-12-26 14:52:00,77.0,72.0,30.02,South,189,14.0,20.0,85,0.00,,,0.08,,2013-12-26 19:52:00,
2013-12-26 15:22:00,78.0,72.0,30.02,South,186,17.0,19.0,83,0.00,,,0.08,,2013-12-26 20:22:00,
2013-12-26 15:52:00,77.0,71.0,30.01,SSW,193,16.0,21.0,83,0.00,,,0.06,,2013-12-26 20:52:00,
2013-12-26 16:22:00,77.0,72.0,30.01,South,180,15.0,21.0,84,0.00,,,0.06,,2013-12-26 21:22:00,
2013-12-26 16:43:00,77.0,71.0,30.01,SSW,195,16.0,20.0,83,0.00,,,0.06,,2013-12-26 21:43:00,
2013-12-26 16:53:00,77.0,71.0,30.01,South,189,19.0,20.0,81,0.00,,,0.05,,2013-12-26 21:53:00,
2013-12-26 17:23:00,77.0,71.0,30.02,South,187,18.0,22.0,81,0.00,,,0.05,,2013-12-26 22:23:00,
2013-12-26 17:52:00,77.0,71.0,30.03,South,182,13.0,18.0,83,0.00,,,0.05,,2013-12-26 22:52:00,
2013-12-26 18:22:00,77.0,71.0,30.03,South,178,15.0,18.0,83,0.00,,,0.05,,2013-12-26 23:22:00,
2013-12-26 18:53:00,77.0,72.0,30.03,South,184,17.0,21.0,84,0.00,,,0.05,,2013-12-26 23:53:00,
2013-12-26 19:22:00,77.0,72.0,30.04,SSW,205,14.0,22.0,84,0.00,,,0.05,,2013-12-27 00:22:00,
2013-12-26 19:42:00,77.0,71.0,30.04,South,186,13.0,21.0,83,0.00,,,0.05,,2013-12-27 00:42:00,
2013-12-26 19:52:00,77.0,71.0,30.05,South,184,18.0,20.0,81,0.00,,,0.05,,2013-12-27 00:52:00,
2013-12-26 20:22:00,77.0,71.0,30.06,South,190,16.0,21.0,82,0.00,,,0.05,,2013-12-27 01:22:00,
2013-12-26 20:42:00,77.0,71.0,30.06,South,176,12.0,20.0,83,0.00,,,0.05,,2013-12-27 01:42:00,
2013-12-26 20:52:00,77.0,72.0,30.06,South,180,15.0,20.0,85,0.00,,,0.05,,2013-12-27 01:52:00,
2013-12-26 21:22:00,77.0,72.0,30.07,South,178,16.0,23.0,84,0.00,,,0.05,,2013-12-27 02:22:00,
2013-12-26 21:42:00,77.0,71.0,30.07,South,185,20.0,22.0,82,0.00,,,0.05,,2013-12-27 02:42:00,
2013-12-26 21:52:00,77.0,71.0,30.07,SSW,193,21.0,23.0,83,0.00,,,0.05,,2013-12-27 02:52:00,
2013-12-26 22:22:00,77.0,71.0,30.07,South,180,16.0,21.0,82,0.00,,,0.05,,2013-12-27 03:22:00,
2013-12-26 22:53:00,77.0,72.0,30.09,South,182,14.0,18.0,84,0.00,,,0.03,,2013-12-27 03:53:00,
2013-12-26 23:23:00,76.0,72.0,30.09,South,175,12.0,15.0,86,0.00,,,0.03,,2013-12-27 04:23:00,
2013-12-26 23:53:00,76.0,72.0,30.08,SSE,165,10.0,14.0,87,0.00,,,0.03,,2013-12-27 04:53:00,